sensor_id;sensor_type;location;lat;lon;timestamp;P1;durP1;ratioP1;P2;durP2;ratioP2
72127;SDS011;60000;51.030;7.024;2023-08-12T00:00:03;7.13;;;3.80;;
72127;SDS011;60000;51.030;7.024;2023-08-12T00:02:33;6.73;;;3.13;;
72127;SDS011;60000;51.030;7.024;2023-08-12T00:04:59;7.10;;;3.10;;
72127;SDS011;60000;51.030;7.024;2023-08-12T00:07:24;5.87;;;2.83;;
72127;SDS011;60000;51.030;7.024;2023-08-12T00:09:49;6.47;;;2.80;;
72127;SDS011;60000;51.030;7.024;2023-08-12T00:12:15;6.27;;;3.00;;
72127;SDS011;60000;51.030;7.024;2023-08-12T00:14:40;8.93;;;4.37;;
72127;SDS011;60000;51.030;7.024;2023-08-12T00:17:05;6.93;;;3.40;;
72127;SDS011;60000;51.030;7.024;2023-08-12T00:19:31;6.30;;;3.07;;
72127;SDS011;60000;51.030;7.024;2023-08-12T00:21:56;6.87;;;3.60;;
72127;SDS011;60000;51.030;7.024;2023-08-12T00:24:22;6.67;;;3.23;;
72127;SDS011;60000;51.030;7.024;2023-08-12T00:26:47;7.67;;;4.07;;
72127;SDS011;60000;51.030;7.024;2023-08-12T00:29:12;5.67;;;2.80;;
72127;SDS011;60000;51.030;7.024;2023-08-12T00:31:38;6.90;;;3.10;;
72127;SDS011;60000;51.030;7.024;2023-08-12T00:34:03;9.67;;;4.97;;
72127;SDS011;60000;51.030;7.024;2023-08-12T00:36:28;9.07;;;4.70;;
72127;SDS011;60000;51.030;7.024;2023-08-12T00:42:15;7.22;;;3.30;;
72127;SDS011;60000;51.030;7.024;2023-08-12T00:44:40;5.80;;;2.70;;
72127;SDS011;60000;51.030;7.024;2023-08-12T00:47:06;6.63;;;3.00;;
72127;SDS011;60000;51.030;7.024;2023-08-12T00:49:32;5.85;;;2.63;;
72127;SDS011;60000;51.030;7.024;2023-08-12T00:51:58;6.00;;;2.80;;
72127;SDS011;60000;51.030;7.024;2023-08-12T00:54:24;7.18;;;3.67;;
72127;SDS011;60000;51.030;7.024;2023-08-12T00:56:51;6.53;;;3.00;;
72127;SDS011;60000;51.030;7.024;2023-08-12T00:59:18;7.88;;;4.07;;
72127;SDS011;60000;51.030;7.024;2023-08-12T01:01:44;7.97;;;4.50;;
72127;SDS011;60000;51.030;7.024;2023-08-12T01:04:10;8.45;;;4.10;;
72127;SDS011;60000;51.030;7.024;2023-08-12T01:06:35;6.10;;;2.90;;
72127;SDS011;60000;51.030;7.024;2023-08-12T01:09:02;6.20;;;3.10;;
72127;SDS011;60000;51.030;7.024;2023-08-12T01:11:49;6.22;;;2.92;;
72127;SDS011;60000;51.030;7.024;2023-08-12T01:14:44;7.70;;;3.50;;
72127;SDS011;60000;51.030;7.024;2023-08-12T01:17:14;7.53;;;3.35;;
72127;SDS011;60000;51.030;7.024;2023-08-12T01:19:40;7.32;;;3.28;;
72127;SDS011;60000;51.030;7.024;2023-08-12T01:22:08;8.02;;;4.28;;
72127;SDS011;60000;51.030;7.024;2023-08-12T01:24:36;6.53;;;3.40;;
72127;SDS011;60000;51.030;7.024;2023-08-12T01:27:03;6.40;;;3.33;;
72127;SDS011;60000;51.030;7.024;2023-08-12T01:29:29;7.45;;;3.58;;
72127;SDS011;60000;51.030;7.024;2023-08-12T01:32:03;6.67;;;3.50;;
72127;SDS011;60000;51.030;7.024;2023-08-12T01:34:39;5.97;;;3.10;;
72127;SDS011;60000;51.030;7.024;2023-08-12T01:37:29;7.45;;;3.75;;
72127;SDS011;60000;51.030;7.024;2023-08-12T01:39:56;6.70;;;2.88;;
72127;SDS011;60000;51.030;7.024;2023-08-12T01:42:25;7.45;;;3.10;;
72127;SDS011;60000;51.030;7.024;2023-08-12T01:44:50;8.70;;;5.17;;
72127;SDS011;60000;51.030;7.024;2023-08-12T01:47:18;6.78;;;3.65;;
72127;SDS011;60000;51.030;7.024;2023-08-12T01:49:44;8.90;;;4.32;;
72127;SDS011;60000;51.030;7.024;2023-08-12T01:52:09;7.63;;;3.90;;
72127;SDS011;60000;51.030;7.024;2023-08-12T01:54:34;7.50;;;3.80;;
72127;SDS011;60000;51.030;7.024;2023-08-12T01:57:03;7.43;;;3.90;;
72127;SDS011;60000;51.030;7.024;2023-08-12T01:59:37;8.10;;;4.03;;
72127;SDS011;60000;51.030;7.024;2023-08-12T02:02:03;7.80;;;4.03;;
72127;SDS011;60000;51.030;7.024;2023-08-12T02:04:29;7.83;;;4.00;;
72127;SDS011;60000;51.030;7.024;2023-08-12T02:06:54;8.13;;;3.78;;
72127;SDS011;60000;51.030;7.024;2023-08-12T02:09:20;7.73;;;3.60;;
72127;SDS011;60000;51.030;7.024;2023-08-12T02:11:46;6.93;;;3.72;;
72127;SDS011;60000;51.030;7.024;2023-08-12T02:14:11;7.60;;;3.80;;
72127;SDS011;60000;51.030;7.024;2023-08-12T02:16:37;8.25;;;4.32;;
72127;SDS011;60000;51.030;7.024;2023-08-12T02:19:02;7.40;;;4.20;;
72127;SDS011;60000;51.030;7.024;2023-08-12T02:21:28;7.77;;;3.80;;
72127;SDS011;60000;51.030;7.024;2023-08-12T02:23:53;8.07;;;4.17;;
72127;SDS011;60000;51.030;7.024;2023-08-12T02:26:18;5.85;;;3.05;;
72127;SDS011;60000;51.030;7.024;2023-08-12T02:28:45;9.43;;;4.07;;
72127;SDS011;60000;51.030;7.024;2023-08-12T02:31:10;8.50;;;3.90;;
72127;SDS011;60000;51.030;7.024;2023-08-12T02:33:35;9.13;;;4.80;;
72127;SDS011;60000;51.030;7.024;2023-08-12T02:36:01;10.33;;;5.00;;
72127;SDS011;60000;51.030;7.024;2023-08-12T02:38:26;9.93;;;4.53;;
72127;SDS011;60000;51.030;7.024;2023-08-12T02:40:51;7.97;;;4.07;;
72127;SDS011;60000;51.030;7.024;2023-08-12T02:43:17;7.73;;;3.93;;
72127;SDS011;60000;51.030;7.024;2023-08-12T02:45:42;7.20;;;3.47;;
72127;SDS011;60000;51.030;7.024;2023-08-12T02:48:11;9.03;;;3.90;;
72127;SDS011;60000;51.030;7.024;2023-08-12T02:50:36;8.25;;;4.20;;
72127;SDS011;60000;51.030;7.024;2023-08-12T02:53:02;7.13;;;3.90;;
72127;SDS011;60000;51.030;7.024;2023-08-12T02:55:28;8.17;;;4.77;;
72127;SDS011;60000;51.030;7.024;2023-08-12T02:57:56;7.50;;;4.33;;
72127;SDS011;60000;51.030;7.024;2023-08-12T03:00:21;8.15;;;4.10;;
72127;SDS011;60000;51.030;7.024;2023-08-12T03:02:47;8.13;;;4.37;;
72127;SDS011;60000;51.030;7.024;2023-08-12T03:05:12;7.57;;;3.70;;
72127;SDS011;60000;51.030;7.024;2023-08-12T03:07:37;8.53;;;4.40;;
72127;SDS011;60000;51.030;7.024;2023-08-12T03:10:02;7.37;;;4.07;;
72127;SDS011;60000;51.030;7.024;2023-08-12T03:12:29;10.70;;;5.90;;
72127;SDS011;60000;51.030;7.024;2023-08-12T03:14:54;9.70;;;5.07;;
72127;SDS011;60000;51.030;7.024;2023-08-12T03:17:22;12.45;;;5.47;;
72127;SDS011;60000;51.030;7.024;2023-08-12T03:19:47;9.37;;;4.40;;
72127;SDS011;60000;51.030;7.024;2023-08-12T03:22:14;11.35;;;5.03;;
72127;SDS011;60000;51.030;7.024;2023-08-12T03:24:39;8.70;;;4.53;;
72127;SDS011;60000;51.030;7.024;2023-08-12T03:27:05;8.50;;;4.27;;
72127;SDS011;60000;51.030;7.024;2023-08-12T03:29:30;8.90;;;4.43;;
72127;SDS011;60000;51.030;7.024;2023-08-12T03:31:55;8.83;;;4.73;;
72127;SDS011;60000;51.030;7.024;2023-08-12T03:34:20;8.43;;;4.93;;
72127;SDS011;60000;51.030;7.024;2023-08-12T03:36:46;9.47;;;4.80;;
72127;SDS011;60000;51.030;7.024;2023-08-12T03:39:13;8.68;;;4.30;;
72127;SDS011;60000;51.030;7.024;2023-08-12T03:41:38;8.13;;;4.15;;
72127;SDS011;60000;51.030;7.024;2023-08-12T03:44:04;9.07;;;4.00;;
72127;SDS011;60000;51.030;7.024;2023-08-12T03:46:29;8.13;;;4.10;;
72127;SDS011;60000;51.030;7.024;2023-08-12T03:48:55;8.33;;;3.90;;
72127;SDS011;60000;51.030;7.024;2023-08-12T03:51:20;7.93;;;3.93;;
72127;SDS011;60000;51.030;7.024;2023-08-12T03:53:46;7.80;;;3.63;;
72127;SDS011;60000;51.030;7.024;2023-08-12T03:56:11;8.03;;;3.50;;
72127;SDS011;60000;51.030;7.024;2023-08-12T03:58:39;6.78;;;3.53;;
72127;SDS011;60000;51.030;7.024;2023-08-12T04:01:05;6.63;;;3.57;;
72127;SDS011;60000;51.030;7.024;2023-08-12T04:03:30;6.80;;;3.40;;
72127;SDS011;60000;51.030;7.024;2023-08-12T04:05:56;7.70;;;3.45;;
72127;SDS011;60000;51.030;7.024;2023-08-12T04:08:22;6.17;;;2.90;;
72127;SDS011;60000;51.030;7.024;2023-08-12T04:10:48;5.60;;;2.67;;
72127;SDS011;60000;51.030;7.024;2023-08-12T04:13:14;5.83;;;3.17;;
72127;SDS011;60000;51.030;7.024;2023-08-12T04:15:47;7.20;;;3.40;;
72127;SDS011;60000;51.030;7.024;2023-08-12T04:18:13;7.78;;;3.10;;
72127;SDS011;60000;51.030;7.024;2023-08-12T04:20:38;6.90;;;3.20;;
72127;SDS011;60000;51.030;7.024;2023-08-12T04:23:04;7.07;;;2.60;;
72127;SDS011;60000;51.030;7.024;2023-08-12T04:25:32;6.65;;;3.00;;
72127;SDS011;60000;51.030;7.024;2023-08-12T04:27:57;5.40;;;2.70;;
72127;SDS011;60000;51.030;7.024;2023-08-12T04:30:23;6.83;;;2.90;;
72127;SDS011;60000;51.030;7.024;2023-08-12T04:32:48;6.47;;;2.92;;
72127;SDS011;60000;51.030;7.024;2023-08-12T04:35:14;5.30;;;2.80;;
72127;SDS011;60000;51.030;7.024;2023-08-12T04:37:39;6.30;;;3.10;;
72127;SDS011;60000;51.030;7.024;2023-08-12T04:40:04;7.67;;;3.30;;
72127;SDS011;60000;51.030;7.024;2023-08-12T04:42:32;9.02;;;3.85;;
72127;SDS011;60000;51.030;7.024;2023-08-12T04:44:57;8.63;;;4.63;;
72127;SDS011;60000;51.030;7.024;2023-08-12T04:47:23;8.40;;;3.93;;
72127;SDS011;60000;51.030;7.024;2023-08-12T04:49:48;7.77;;;4.13;;
72127;SDS011;60000;51.030;7.024;2023-08-12T04:52:13;8.63;;;4.40;;
72127;SDS011;60000;51.030;7.024;2023-08-12T04:54:39;7.63;;;4.23;;
72127;SDS011;60000;51.030;7.024;2023-08-12T04:57:04;10.07;;;4.93;;
72127;SDS011;60000;51.030;7.024;2023-08-12T04:59:30;9.40;;;4.17;;
72127;SDS011;60000;51.030;7.024;2023-08-12T05:01:56;7.00;;;3.95;;
72127;SDS011;60000;51.030;7.024;2023-08-12T05:04:21;10.33;;;5.00;;
72127;SDS011;60000;51.030;7.024;2023-08-12T05:06:49;7.73;;;4.37;;
72127;SDS011;60000;51.030;7.024;2023-08-12T05:09:14;8.57;;;4.82;;
72127;SDS011;60000;51.030;7.024;2023-08-12T05:11:39;7.63;;;4.40;;
72127;SDS011;60000;51.030;7.024;2023-08-12T05:14:05;9.93;;;4.07;;
72127;SDS011;60000;51.030;7.024;2023-08-12T05:16:30;8.37;;;3.70;;
72127;SDS011;60000;51.030;7.024;2023-08-12T05:18:59;9.60;;;4.57;;
72127;SDS011;60000;51.030;7.024;2023-08-12T05:21:24;7.97;;;3.90;;
72127;SDS011;60000;51.030;7.024;2023-08-12T05:23:49;7.40;;;3.90;;
72127;SDS011;60000;51.030;7.024;2023-08-12T05:26:18;7.33;;;3.47;;
72127;SDS011;60000;51.030;7.024;2023-08-12T05:28:45;8.55;;;4.30;;
72127;SDS011;60000;51.030;7.024;2023-08-12T05:31:10;7.20;;;3.67;;
72127;SDS011;60000;51.030;7.024;2023-08-12T05:33:35;8.97;;;4.47;;
72127;SDS011;60000;51.030;7.024;2023-08-12T05:36:00;7.57;;;3.90;;
72127;SDS011;60000;51.030;7.024;2023-08-12T05:38:26;7.80;;;4.00;;
72127;SDS011;60000;51.030;7.024;2023-08-12T05:40:52;6.97;;;3.53;;
72127;SDS011;60000;51.030;7.024;2023-08-12T05:43:18;5.80;;;3.27;;
72127;SDS011;60000;51.030;7.024;2023-08-12T05:45:43;6.73;;;3.70;;
72127;SDS011;60000;51.030;7.024;2023-08-12T05:48:08;8.20;;;3.57;;
72127;SDS011;60000;51.030;7.024;2023-08-12T05:50:34;10.27;;;4.07;;
72127;SDS011;60000;51.030;7.024;2023-08-12T05:52:59;8.20;;;4.00;;
72127;SDS011;60000;51.030;7.024;2023-08-12T05:55:24;7.87;;;3.53;;
72127;SDS011;60000;51.030;7.024;2023-08-12T05:57:49;6.83;;;4.20;;
72127;SDS011;60000;51.030;7.024;2023-08-12T06:00:15;9.30;;;4.13;;
72127;SDS011;60000;51.030;7.024;2023-08-12T06:02:40;8.53;;;4.20;;
72127;SDS011;60000;51.030;7.024;2023-08-12T06:05:06;8.70;;;4.70;;
72127;SDS011;60000;51.030;7.024;2023-08-12T06:07:32;9.70;;;5.20;;
72127;SDS011;60000;51.030;7.024;2023-08-12T06:09:57;8.00;;;3.90;;
72127;SDS011;60000;51.030;7.024;2023-08-12T06:12:22;7.10;;;3.67;;
72127;SDS011;60000;51.030;7.024;2023-08-12T06:14:48;9.90;;;4.60;;
72127;SDS011;60000;51.030;7.024;2023-08-12T06:17:13;7.10;;;3.90;;
72127;SDS011;60000;51.030;7.024;2023-08-12T06:19:38;8.30;;;4.80;;
72127;SDS011;60000;51.030;7.024;2023-08-12T06:22:04;9.30;;;4.40;;
72127;SDS011;60000;51.030;7.024;2023-08-12T06:24:29;8.00;;;4.57;;
72127;SDS011;60000;51.030;7.024;2023-08-12T06:26:54;9.47;;;4.80;;
72127;SDS011;60000;51.030;7.024;2023-08-12T06:29:20;10.03;;;4.63;;
72127;SDS011;60000;51.030;7.024;2023-08-12T06:31:45;10.40;;;4.23;;
72127;SDS011;60000;51.030;7.024;2023-08-12T06:34:10;8.67;;;5.10;;
72127;SDS011;60000;51.030;7.024;2023-08-12T06:36:35;10.47;;;4.90;;
72127;SDS011;60000;51.030;7.024;2023-08-12T06:39:01;10.90;;;5.37;;
72127;SDS011;60000;51.030;7.024;2023-08-12T06:41:26;9.23;;;5.23;;
72127;SDS011;60000;51.030;7.024;2023-08-12T06:43:51;10.40;;;4.90;;
72127;SDS011;60000;51.030;7.024;2023-08-12T06:46:17;9.63;;;5.00;;
72127;SDS011;60000;51.030;7.024;2023-08-12T06:48:42;10.17;;;4.67;;
72127;SDS011;60000;51.030;7.024;2023-08-12T06:51:07;8.43;;;4.77;;
72127;SDS011;60000;51.030;7.024;2023-08-12T06:53:35;9.33;;;4.73;;
72127;SDS011;60000;51.030;7.024;2023-08-12T06:56:01;9.23;;;4.63;;
72127;SDS011;60000;51.030;7.024;2023-08-12T06:58:27;10.43;;;4.85;;
72127;SDS011;60000;51.030;7.024;2023-08-12T07:00:52;8.47;;;4.30;;
72127;SDS011;60000;51.030;7.024;2023-08-12T07:03:18;7.67;;;4.30;;
72127;SDS011;60000;51.030;7.024;2023-08-12T07:05:43;7.30;;;4.10;;
72127;SDS011;60000;51.030;7.024;2023-08-12T07:08:09;8.37;;;4.13;;
72127;SDS011;60000;51.030;7.024;2023-08-12T07:10:34;7.50;;;3.80;;
72127;SDS011;60000;51.030;7.024;2023-08-12T07:13:03;8.52;;;4.18;;
72127;SDS011;60000;51.030;7.024;2023-08-12T07:15:28;9.30;;;3.60;;
72127;SDS011;60000;51.030;7.024;2023-08-12T07:17:54;8.23;;;3.90;;
72127;SDS011;60000;51.030;7.024;2023-08-12T07:20:19;7.57;;;3.70;;
72127;SDS011;60000;51.030;7.024;2023-08-12T07:22:44;6.87;;;3.40;;
72127;SDS011;60000;51.030;7.024;2023-08-12T07:25:10;6.20;;;3.50;;
72127;SDS011;60000;51.030;7.024;2023-08-12T07:27:35;7.43;;;3.58;;
72127;SDS011;60000;51.030;7.024;2023-08-12T07:30:00;6.80;;;3.63;;
72127;SDS011;60000;51.030;7.024;2023-08-12T07:32:26;8.43;;;3.23;;
72127;SDS011;60000;51.030;7.024;2023-08-12T07:34:51;7.03;;;3.57;;
72127;SDS011;60000;51.030;7.024;2023-08-12T07:37:17;7.80;;;3.37;;
72127;SDS011;60000;51.030;7.024;2023-08-12T07:39:42;7.87;;;3.30;;
72127;SDS011;60000;51.030;7.024;2023-08-12T07:42:07;8.20;;;3.67;;
72127;SDS011;60000;51.030;7.024;2023-08-12T07:44:32;7.77;;;3.50;;
72127;SDS011;60000;51.030;7.024;2023-08-12T07:46:58;9.77;;;4.70;;
72127;SDS011;60000;51.030;7.024;2023-08-12T07:49:23;8.57;;;4.20;;
72127;SDS011;60000;51.030;7.024;2023-08-12T07:51:49;8.33;;;3.37;;
72127;SDS011;60000;51.030;7.024;2023-08-12T07:54:14;7.53;;;3.25;;
72127;SDS011;60000;51.030;7.024;2023-08-12T07:56:40;7.60;;;3.20;;
72127;SDS011;60000;51.030;7.024;2023-08-12T07:59:05;7.73;;;3.10;;
72127;SDS011;60000;51.030;7.024;2023-08-12T08:01:31;6.45;;;3.03;;
72127;SDS011;60000;51.030;7.024;2023-08-12T08:03:56;7.33;;;3.37;;
72127;SDS011;60000;51.030;7.024;2023-08-12T08:06:22;6.77;;;3.00;;
72127;SDS011;60000;51.030;7.024;2023-08-12T08:08:48;5.80;;;3.00;;
72127;SDS011;60000;51.030;7.024;2023-08-12T08:11:14;8.17;;;3.20;;
72127;SDS011;60000;51.030;7.024;2023-08-12T08:13:39;7.10;;;2.90;;
72127;SDS011;60000;51.030;7.024;2023-08-12T08:16:04;6.97;;;3.10;;
72127;SDS011;60000;51.030;7.024;2023-08-12T08:18:30;5.97;;;2.70;;
72127;SDS011;60000;51.030;7.024;2023-08-12T08:20:56;6.50;;;3.00;;
72127;SDS011;60000;51.030;7.024;2023-08-12T08:23:21;6.37;;;2.70;;
72127;SDS011;60000;51.030;7.024;2023-08-12T08:25:46;6.23;;;2.80;;
72127;SDS011;60000;51.030;7.024;2023-08-12T08:28:11;6.93;;;3.00;;
72127;SDS011;60000;51.030;7.024;2023-08-12T08:30:37;5.75;;;2.90;;
72127;SDS011;60000;51.030;7.024;2023-08-12T08:33:03;8.30;;;3.00;;
72127;SDS011;60000;51.030;7.024;2023-08-12T08:35:28;8.17;;;2.83;;
72127;SDS011;60000;51.030;7.024;2023-08-12T08:37:53;6.17;;;2.80;;
72127;SDS011;60000;51.030;7.024;2023-08-12T08:40:19;7.43;;;3.00;;
72127;SDS011;60000;51.030;7.024;2023-08-12T08:42:44;6.93;;;2.50;;
72127;SDS011;60000;51.030;7.024;2023-08-12T08:45:12;5.72;;;2.28;;
72127;SDS011;60000;51.030;7.024;2023-08-12T08:47:38;5.30;;;2.40;;
72127;SDS011;60000;51.030;7.024;2023-08-12T08:50:05;7.38;;;2.67;;
72127;SDS011;60000;51.030;7.024;2023-08-12T08:52:31;5.35;;;2.55;;
72127;SDS011;60000;51.030;7.024;2023-08-12T08:54:57;5.65;;;2.40;;
72127;SDS011;60000;51.030;7.024;2023-08-12T08:57:25;7.50;;;2.30;;
72127;SDS011;60000;51.030;7.024;2023-08-12T08:59:53;7.55;;;2.70;;
72127;SDS011;60000;51.030;7.024;2023-08-12T09:02:18;7.37;;;2.37;;
72127;SDS011;60000;51.030;7.024;2023-08-12T09:04:44;5.47;;;2.10;;
72127;SDS011;60000;51.030;7.024;2023-08-12T09:07:11;6.30;;;2.50;;
72127;SDS011;60000;51.030;7.024;2023-08-12T09:09:36;5.88;;;2.30;;
72127;SDS011;60000;51.030;7.024;2023-08-12T09:12:05;7.95;;;2.60;;
72127;SDS011;60000;51.030;7.024;2023-08-12T09:14:31;6.28;;;2.38;;
72127;SDS011;60000;51.030;7.024;2023-08-12T09:16:56;7.07;;;2.93;;
72127;SDS011;60000;51.030;7.024;2023-08-12T09:19:22;6.37;;;2.47;;
72127;SDS011;60000;51.030;7.024;2023-08-12T09:21:53;5.78;;;2.50;;
72127;SDS011;60000;51.030;7.024;2023-08-12T09:24:26;6.93;;;2.00;;
72127;SDS011;60000;51.030;7.024;2023-08-12T09:26:52;7.13;;;2.63;;
72127;SDS011;60000;51.030;7.024;2023-08-12T09:29:19;6.57;;;2.53;;
72127;SDS011;60000;51.030;7.024;2023-08-12T09:31:47;8.27;;;2.70;;
72127;SDS011;60000;51.030;7.024;2023-08-12T09:34:13;5.87;;;2.47;;
72127;SDS011;60000;51.030;7.024;2023-08-12T09:36:38;5.03;;;2.40;;
72127;SDS011;60000;51.030;7.024;2023-08-12T09:39:07;6.13;;;2.10;;
72127;SDS011;60000;51.030;7.024;2023-08-12T09:41:37;6.93;;;2.30;;
72127;SDS011;60000;51.030;7.024;2023-08-12T09:44:03;4.85;;;2.08;;
72127;SDS011;60000;51.030;7.024;2023-08-12T09:46:29;5.57;;;2.28;;
72127;SDS011;60000;51.030;7.024;2023-08-12T09:48:58;6.10;;;2.40;;
72127;SDS011;60000;51.030;7.024;2023-08-12T09:51:24;5.87;;;2.43;;
72127;SDS011;60000;51.030;7.024;2023-08-12T09:53:49;7.37;;;2.30;;
72127;SDS011;60000;51.030;7.024;2023-08-12T09:56:17;6.13;;;2.93;;
72127;SDS011;60000;51.030;7.024;2023-08-12T09:58:44;5.18;;;2.00;;
72127;SDS011;60000;51.030;7.024;2023-08-12T10:01:13;6.03;;;2.13;;
72127;SDS011;60000;51.030;7.024;2023-08-12T10:03:39;4.87;;;2.03;;
72127;SDS011;60000;51.030;7.024;2023-08-12T10:06:05;5.95;;;2.13;;
72127;SDS011;60000;51.030;7.024;2023-08-12T10:08:31;4.88;;;2.08;;
72127;SDS011;60000;51.030;7.024;2023-08-12T10:10:58;4.43;;;1.70;;
72127;SDS011;60000;51.030;7.024;2023-08-12T10:13:23;5.20;;;1.77;;
72127;SDS011;60000;51.030;7.024;2023-08-12T10:15:51;4.57;;;1.70;;
72127;SDS011;60000;51.030;7.024;2023-08-12T10:18:18;5.40;;;1.70;;
72127;SDS011;60000;51.030;7.024;2023-08-12T10:20:44;5.35;;;1.95;;
72127;SDS011;60000;51.030;7.024;2023-08-12T10:23:13;4.80;;;1.87;;
72127;SDS011;60000;51.030;7.024;2023-08-12T10:25:41;6.15;;;1.83;;
72127;SDS011;60000;51.030;7.024;2023-08-12T10:28:08;4.53;;;1.88;;
72127;SDS011;60000;51.030;7.024;2023-08-12T10:30:33;4.53;;;1.90;;
72127;SDS011;60000;51.030;7.024;2023-08-12T10:32:59;5.50;;;1.85;;
72127;SDS011;60000;51.030;7.024;2023-08-12T10:35:39;5.93;;;1.77;;
72127;SDS011;60000;51.030;7.024;2023-08-12T10:38:19;5.80;;;1.77;;
72127;SDS011;60000;51.030;7.024;2023-08-12T10:40:45;4.22;;;1.92;;
72127;SDS011;60000;51.030;7.024;2023-08-12T10:43:12;6.78;;;1.77;;
72127;SDS011;60000;51.030;7.024;2023-08-12T10:45:42;5.57;;;1.90;;
72127;SDS011;60000;51.030;7.024;2023-08-12T10:48:24;5.03;;;1.83;;
72127;SDS011;60000;51.030;7.024;2023-08-12T10:50:56;5.30;;;1.90;;
72127;SDS011;60000;51.030;7.024;2023-08-12T10:55:54;5.20;;;1.90;;
72127;SDS011;60000;51.030;7.024;2023-08-12T10:58:28;5.53;;;1.98;;
72127;SDS011;60000;51.030;7.024;2023-08-12T11:01:13;4.70;;;1.80;;
72127;SDS011;60000;51.030;7.024;2023-08-12T11:03:43;3.95;;;1.70;;
72127;SDS011;60000;51.030;7.024;2023-08-12T11:06:12;5.40;;;1.98;;
72127;SDS011;60000;51.030;7.024;2023-08-12T11:08:45;6.05;;;1.77;;
72127;SDS011;60000;51.030;7.024;2023-08-12T11:11:23;4.68;;;1.73;;
72127;SDS011;60000;51.030;7.024;2023-08-12T11:13:58;5.70;;;2.20;;
72127;SDS011;60000;51.030;7.024;2023-08-12T11:16:36;5.78;;;2.15;;
72127;SDS011;60000;51.030;7.024;2023-08-12T11:19:02;5.53;;;1.85;;
72127;SDS011;60000;51.030;7.024;2023-08-12T11:21:29;5.80;;;1.83;;
72127;SDS011;60000;51.030;7.024;2023-08-12T11:23:55;4.90;;;1.93;;
72127;SDS011;60000;51.030;7.024;2023-08-12T11:26:21;4.93;;;2.13;;
72127;SDS011;60000;51.030;7.024;2023-08-12T11:28:48;5.60;;;2.10;;
72127;SDS011;60000;51.030;7.024;2023-08-12T11:31:14;4.93;;;2.13;;
72127;SDS011;60000;51.030;7.024;2023-08-12T11:33:40;4.70;;;2.00;;
72127;SDS011;60000;51.030;7.024;2023-08-12T11:36:06;5.18;;;2.20;;
72127;SDS011;60000;51.030;7.024;2023-08-12T11:38:32;4.93;;;1.90;;
72127;SDS011;60000;51.030;7.024;2023-08-12T11:41:00;4.93;;;1.80;;
72127;SDS011;60000;51.030;7.024;2023-08-12T11:43:26;4.15;;;1.80;;
72127;SDS011;60000;51.030;7.024;2023-08-12T11:45:51;6.63;;;2.23;;
72127;SDS011;60000;51.030;7.024;2023-08-12T11:48:16;4.37;;;1.90;;
72127;SDS011;60000;51.030;7.024;2023-08-12T11:50:42;4.07;;;1.77;;
72127;SDS011;60000;51.030;7.024;2023-08-12T11:53:07;4.18;;;1.70;;
72127;SDS011;60000;51.030;7.024;2023-08-12T11:55:33;5.10;;;2.00;;
72127;SDS011;60000;51.030;7.024;2023-08-12T11:57:58;4.60;;;1.80;;
72127;SDS011;60000;51.030;7.024;2023-08-12T12:00:24;5.82;;;1.75;;
72127;SDS011;60000;51.030;7.024;2023-08-12T12:02:51;4.32;;;1.67;;
72127;SDS011;60000;51.030;7.024;2023-08-12T12:05:20;4.07;;;1.67;;
72127;SDS011;60000;51.030;7.024;2023-08-12T12:07:59;5.88;;;2.00;;
72127;SDS011;60000;51.030;7.024;2023-08-12T12:10:27;5.95;;;1.95;;
72127;SDS011;60000;51.030;7.024;2023-08-12T12:12:54;5.25;;;1.73;;
72127;SDS011;60000;51.030;7.024;2023-08-12T12:15:20;5.63;;;1.80;;
72127;SDS011;60000;51.030;7.024;2023-08-12T12:17:49;4.85;;;1.58;;
72127;SDS011;60000;51.030;7.024;2023-08-12T12:20:15;4.80;;;1.70;;
72127;SDS011;60000;51.030;7.024;2023-08-12T12:22:41;6.70;;;1.90;;
72127;SDS011;60000;51.030;7.024;2023-08-12T12:25:09;7.17;;;2.10;;
72127;SDS011;60000;51.030;7.024;2023-08-12T12:27:41;5.82;;;1.48;;
72127;SDS011;60000;51.030;7.024;2023-08-12T12:30:11;5.47;;;1.70;;
72127;SDS011;60000;51.030;7.024;2023-08-12T12:32:37;8.05;;;1.80;;
72127;SDS011;60000;51.030;7.024;2023-08-12T12:35:05;6.00;;;2.00;;
72127;SDS011;60000;51.030;7.024;2023-08-12T12:37:32;5.47;;;1.95;;
72127;SDS011;60000;51.030;7.024;2023-08-12T12:39:57;6.37;;;2.90;;
72127;SDS011;60000;51.030;7.024;2023-08-12T12:42:23;7.63;;;3.17;;
72127;SDS011;60000;51.030;7.024;2023-08-12T12:44:48;6.03;;;2.23;;
72127;SDS011;60000;51.030;7.024;2023-08-12T12:47:13;5.17;;;1.93;;
72127;SDS011;60000;51.030;7.024;2023-08-12T12:49:39;4.17;;;1.70;;
72127;SDS011;60000;51.030;7.024;2023-08-12T12:52:06;4.67;;;1.57;;
72127;SDS011;60000;51.030;7.024;2023-08-12T12:54:32;4.65;;;1.48;;
72127;SDS011;60000;51.030;7.024;2023-08-12T12:56:57;3.97;;;1.50;;
72127;SDS011;60000;51.030;7.024;2023-08-12T12:59:22;3.30;;;1.13;;
72127;SDS011;60000;51.030;7.024;2023-08-12T13:01:48;6.17;;;2.07;;
72127;SDS011;60000;51.030;7.024;2023-08-12T13:04:13;7.05;;;1.40;;
72127;SDS011;60000;51.030;7.024;2023-08-12T13:06:39;5.83;;;1.67;;
72127;SDS011;60000;51.030;7.024;2023-08-12T13:09:04;4.90;;;1.80;;
72127;SDS011;60000;51.030;7.024;2023-08-12T13:11:31;3.90;;;1.50;;
72127;SDS011;60000;51.030;7.024;2023-08-12T13:13:57;4.15;;;1.80;;
72127;SDS011;60000;51.030;7.024;2023-08-12T13:16:22;6.57;;;3.07;;
72127;SDS011;60000;51.030;7.024;2023-08-12T13:18:48;5.80;;;1.53;;
72127;SDS011;60000;51.030;7.024;2023-08-12T13:21:13;4.63;;;1.63;;
72127;SDS011;60000;51.030;7.024;2023-08-12T13:23:39;4.03;;;1.50;;
72127;SDS011;60000;51.030;7.024;2023-08-12T13:26:04;3.40;;;1.23;;
72127;SDS011;60000;51.030;7.024;2023-08-12T13:28:30;3.75;;;1.15;;
72127;SDS011;60000;51.030;7.024;2023-08-12T13:30:55;4.20;;;1.00;;
72127;SDS011;60000;51.030;7.024;2023-08-12T13:33:20;2.97;;;1.10;;
72127;SDS011;60000;51.030;7.024;2023-08-12T13:35:46;3.50;;;1.10;;
72127;SDS011;60000;51.030;7.024;2023-08-12T13:38:11;2.80;;;1.10;;
72127;SDS011;60000;51.030;7.024;2023-08-12T13:40:39;3.17;;;1.30;;
72127;SDS011;60000;51.030;7.024;2023-08-12T13:43:04;4.40;;;1.03;;
72127;SDS011;60000;51.030;7.024;2023-08-12T13:45:30;2.60;;;1.00;;
72127;SDS011;60000;51.030;7.024;2023-08-12T13:47:55;3.67;;;1.00;;
72127;SDS011;60000;51.030;7.024;2023-08-12T13:50:20;3.27;;;1.27;;
72127;SDS011;60000;51.030;7.024;2023-08-12T13:52:46;2.77;;;1.10;;
72127;SDS011;60000;51.030;7.024;2023-08-12T13:55:12;2.78;;;1.00;;
72127;SDS011;60000;51.030;7.024;2023-08-12T13:57:37;3.30;;;1.20;;
72127;SDS011;60000;51.030;7.024;2023-08-12T14:00:09;4.05;;;1.35;;
72127;SDS011;60000;51.030;7.024;2023-08-12T14:02:38;3.80;;;1.30;;
72127;SDS011;60000;51.030;7.024;2023-08-12T14:05:03;3.20;;;1.15;;
72127;SDS011;60000;51.030;7.024;2023-08-12T14:07:29;3.60;;;1.40;;
72127;SDS011;60000;51.030;7.024;2023-08-12T14:09:55;4.15;;;1.60;;
72127;SDS011;60000;51.030;7.024;2023-08-12T14:12:20;3.00;;;1.20;;
72127;SDS011;60000;51.030;7.024;2023-08-12T14:14:46;4.23;;;1.70;;
72127;SDS011;60000;51.030;7.024;2023-08-12T14:17:11;3.33;;;1.20;;
72127;SDS011;60000;51.030;7.024;2023-08-12T14:19:39;3.75;;;1.50;;
72127;SDS011;60000;51.030;7.024;2023-08-12T14:22:06;4.38;;;1.30;;
72127;SDS011;60000;51.030;7.024;2023-08-12T14:24:32;4.07;;;1.27;;
72127;SDS011;60000;51.030;7.024;2023-08-12T14:26:57;3.17;;;1.20;;
72127;SDS011;60000;51.030;7.024;2023-08-12T14:29:22;4.20;;;1.47;;
72127;SDS011;60000;51.030;7.024;2023-08-12T14:31:48;4.13;;;1.50;;
72127;SDS011;60000;51.030;7.024;2023-08-12T14:34:13;4.70;;;1.50;;
72127;SDS011;60000;51.030;7.024;2023-08-12T14:36:38;3.43;;;1.30;;
72127;SDS011;60000;51.030;7.024;2023-08-12T14:39:04;3.00;;;1.20;;
72127;SDS011;60000;51.030;7.024;2023-08-12T14:41:29;1.97;;;0.90;;
72127;SDS011;60000;51.030;7.024;2023-08-12T14:43:54;2.80;;;1.03;;
72127;SDS011;60000;51.030;7.024;2023-08-12T14:46:20;2.40;;;1.07;;
72127;SDS011;60000;51.030;7.024;2023-08-12T14:48:45;3.07;;;1.00;;